Ash Hill, North Carolina
Current Conditions -  °F | °C
As of 6:55 AM on Saturday 20 Dec 2014 (Local Time) from KMWK Reporting Station
Overcast Overcast  
Wind Chill: 31°   Ceiling: 10000
Heat Index: 36°   Visibility: 10mi
Dew Point: 26°   Wind: 6mph
Humidity: 69%   Direction: 70°ENE
Pressure: 30.24"   Gusts: NA
Location:  36.3687°N, 80.588°W
Report Text: KMWK 201155Z AUTO 07005KT 10SM BKN100 OVC120 02/M03 A3024 RMK AO2 T00201031 10043 20015
Loading
Personal Weather Stations






























Interactive Weather Map New forecast layout! Learn more

10-Day Weather Forecast

Advertisements
Track Severe Weather on mobile